Time;durP1;ratioP1;P1;durP2;ratioP2;P2;SDS_P1;SDS_P2;PMS_P1;PMS_P2;Temp;Humidity;BMP_temperature;BMP_pressure;BME280_temperature;BME280_humidity;BME280_pressure;Samples;Min_cycle;Max_cycle;Signal;HPM_P1;HPM_P2
2022/05/10 00:00:54;;;;;;;14.18;5.70;;;15.00;99.90;;;;;;5076699;28;20073;-88
2022/05/10 00:03:22;;;;;;;11.05;5.80;;;15.00;99.90;;;;;;5080506;28;20017;-88
2022/05/10 00:05:48;;;;;;;11.52;6.35;;;15.00;99.90;;;;;;5075843;28;20036;-88
2022/05/10 00:08:17;;;;;;;9.88;6.05;;;15.00;99.90;;;;;;5077531;28;20021;-88
2022/05/10 00:10:44;;;;;;;20.95;6.13;;;15.00;99.90;;;;;;5078911;28;20037;-87
2022/05/10 00:13:11;;;;;;;14.40;6.05;;;14.90;99.90;;;;;;5079853;28;20052;-87
2022/05/10 00:15:39;;;;;;;18.02;6.45;;;14.90;99.90;;;;;;5053566;28;20013;-88
2022/05/10 00:18:04;;;;;;;16.85;5.72;;;14.90;99.90;;;;;;5079172;28;20012;-87
2022/05/10 00:20:30;;;;;;;14.20;5.82;;;14.80;99.90;;;;;;5071637;28;20032;-89
2022/05/10 00:22:56;;;;;;;14.13;6.22;;;14.90;99.90;;;;;;5079178;28;20094;-87
2022/05/10 00:25:26;;;;;;;10.85;6.18;;;14.80;99.90;;;;;;5069015;28;20022;-87
2022/05/10 00:27:52;;;;;;;7.22;4.70;;;14.80;99.90;;;;;;5074443;28;20040;-87
2022/05/10 00:30:18;;;;;;;13.20;5.38;;;14.80;99.90;;;;;;5062422;28;20026;-88
2022/05/10 00:32:45;;;;;;;15.52;5.75;;;14.70;99.90;;;;;;5069945;28;20033;-89
2022/05/10 00:35:21;;;;;;;11.13;5.60;;;14.80;99.90;;;;;;5070026;28;20043;-87
2022/05/10 00:37:49;;;;;;;11.18;5.22;;;14.80;99.90;;;;;;5072728;28;20029;-88
2022/05/10 00:40:18;;;;;;;12.10;5.95;;;14.80;99.90;;;;;;5053668;28;20055;-86
2022/05/10 00:43:20;;;;;;;10.20;6.13;;;14.80;99.90;;;;;;5062085;28;20029;-88
2022/05/10 00:45:55;;;;;;;14.18;6.57;;;14.70;99.90;;;;;;5062341;28;20037;-89
2022/05/10 00:48:47;;;;;;;10.10;5.68;;;14.70;99.90;;;;;;5065633;28;20029;-89
2022/05/10 00:51:40;;;;;;;12.30;6.13;;;14.70;99.90;;;;;;5076982;28;20511;-88
2022/05/10 00:54:25;;;;;;;13.55;6.10;;;14.60;99.90;;;;;;5039489;28;20053;-88
2022/05/10 00:57:31;;;;;;;9.77;5.80;;;14.50;99.90;;;;;;5065667;28;20029;-88
2022/05/10 01:00:10;;;;;;;8.73;5.40;;;14.50;99.90;;;;;;5028729;28;20057;-89
2022/05/10 01:03:11;;;;;;;14.07;5.45;;;14.40;99.90;;;;;;5051000;28;20045;-89
2022/05/10 01:05:37;;;;;;;8.30;5.65;;;14.40;99.90;;;;;;5060813;28;20061;-88
2022/05/10 01:08:26;;;;;;;9.20;5.85;;;14.40;99.90;;;;;;5067374;28;20055;-89
2022/05/10 01:11:03;;;;;;;10.30;5.90;;;14.40;99.90;;;;;;5067728;28;20096;-87
2022/05/10 01:13:49;;;;;;;8.57;5.43;;;14.30;99.90;;;;;;5056645;28;20488;-87
2022/05/10 01:16:20;;;;;;;7.95;5.38;;;14.30;99.90;;;;;;5063281;28;20037;-88
2022/05/10 01:18:49;;;;;;;11.65;6.55;;;14.20;99.90;;;;;;5062374;28;20025;-88
2022/05/10 01:21:44;;;;;;;13.40;6.65;;;14.10;99.90;;;;;;5059526;28;20022;-88
2022/05/10 01:24:15;;;;;;;9.68;6.35;;;14.10;99.90;;;;;;5060743;28;20112;-88
2022/05/10 01:26:41;;;;;;;14.52;6.55;;;14.00;99.90;;;;;;5069423;28;20055;-88
2022/05/10 01:29:12;;;;;;;11.93;6.40;;;14.00;99.90;;;;;;5071858;28;20025;-88
2022/05/10 01:31:45;;;;;;;7.53;5.47;;;14.00;99.90;;;;;;5067709;28;20048;-88
2022/05/10 01:34:20;;;;;;;11.00;6.22;;;14.10;99.90;;;;;;5041870;28;20039;-88
2022/05/10 01:36:59;;;;;;;10.80;5.95;;;14.00;99.90;;;;;;5068482;28;20412;-89
2022/05/10 01:39:30;;;;;;;9.00;5.78;;;13.90;99.90;;;;;;5065704;28;20024;-88
2022/05/10 01:42:08;;;;;;;12.77;6.10;;;13.90;99.90;;;;;;5062389;28;20029;-88
2022/05/10 01:44:40;;;;;;;10.05;6.15;;;13.90;99.90;;;;;;5063878;28;20040;-86
2022/05/10 01:47:14;;;;;;;9.98;5.05;;;13.80;99.90;;;;;;5058821;28;20032;-88
2022/05/10 01:49:54;;;;;;;6.95;5.80;;;13.80;99.90;;;;;;5064114;28;20028;-87
2022/05/10 01:52:46;;;;;;;10.77;5.38;;;13.70;99.90;;;;;;5075513;28;20017;-88
2022/05/10 01:55:18;;;;;;;7.47;5.55;;;13.70;99.90;;;;;;5034051;28;20029;-89
2022/05/10 01:57:44;;;;;;;10.02;5.63;;;13.70;99.90;;;;;;5079632;28;20051;-89
2022/05/10 02:00:22;;;;;;;7.28;4.88;;;13.60;99.90;;;;;;5079042;28;20018;-89
2022/05/10 02:03:09;;;;;;;9.98;5.60;;;13.50;99.90;;;;;;5078896;28;20027;-89
2022/05/10 02:05:45;;;;;;;10.73;5.55;;;13.50;99.90;;;;;;5048700;28;20029;-90
2022/05/10 02:08:27;;;;;;;12.85;5.63;;;13.40;99.90;;;;;;5074378;28;20029;-88
2022/05/10 02:10:56;;;;;;;14.23;5.85;;;13.30;99.90;;;;;;5068574;28;20037;-87
2022/05/10 02:13:28;;;;;;;11.07;5.63;;;13.30;99.90;;;;;;5064028;28;20033;-88
2022/05/10 02:16:00;;;;;;;8.05;5.60;;;13.30;99.90;;;;;;5071657;28;20097;-88
2022/05/10 02:18:35;;;;;;;10.38;5.93;;;13.30;99.90;;;;;;5077781;28;20025;-87
2022/05/10 02:21:16;;;;;;;13.80;6.07;;;13.30;99.90;;;;;;5055803;28;20021;-89
2022/05/10 02:23:58;;;;;;;14.13;6.55;;;13.30;99.90;;;;;;5056324;28;20017;-88
2022/05/10 02:26:45;;;;;;;13.27;5.90;;;13.30;99.90;;;;;;5063966;28;20029;-88
2022/05/10 02:29:36;;;;;;;14.00;6.72;;;13.30;99.90;;;;;;5060459;28;20519;-86
2022/05/10 02:34:56;;;;;;;12.50;6.70;;;13.30;99.90;;;;;;5062169;28;20041;-88
2022/05/10 02:37:22;;;;;;;11.40;6.00;;;13.20;99.90;;;;;;5066298;28;20021;-87
2022/05/10 02:39:48;;;;;;;9.27;6.80;;;13.20;99.90;;;;;;5065016;28;20032;-88
2022/05/10 02:42:18;;;;;;;13.52;6.80;;;13.20;99.90;;;;;;5063679;28;20072;-88
2022/05/10 02:44:44;;;;;;;10.52;6.68;;;13.10;99.90;;;;;;5063345;28;20036;-87
2022/05/10 02:47:10;;;;;;;13.90;6.30;;;13.10;99.90;;;;;;5063670;28;20051;-89
2022/05/10 02:49:38;;;;;;;12.68;6.53;;;13.10;99.90;;;;;;5066061;28;20075;-88
2022/05/10 02:52:04;;;;;;;11.70;6.38;;;13.10;99.90;;;;;;5063474;28;20024;-88
2022/05/10 02:57:04;;;;;;;15.48;6.68;;;13.10;99.90;;;;;;5066865;28;20051;-89
2022/05/10 02:59:35;;;;;;;11.00;6.70;;;13.10;99.90;;;;;;5060932;28;20017;-87
2022/05/10 03:02:12;;;;;;;15.30;7.60;;;13.10;99.90;;;;;;5041909;28;20052;-88
2022/05/10 03:04:43;;;;;;;13.85;6.93;;;13.10;99.90;;;;;;5054396;28;20116;-86
2022/05/10 03:07:09;;;;;;;13.65;7.45;;;13.00;99.90;;;;;;5062971;28;20048;-86
2022/05/10 03:09:35;;;;;;;13.27;6.97;;;13.10;99.90;;;;;;5066189;28;20045;-87
2022/05/10 03:12:06;;;;;;;11.32;6.90;;;13.00;99.90;;;;;;5060496;28;20021;-87
2022/05/10 03:14:32;;;;;;;17.92;7.40;;;13.00;99.90;;;;;;5068220;28;20029;-89
2022/05/10 03:16:58;;;;;;;15.68;7.35;;;13.00;99.90;;;;;;5076868;28;20016;-88
2022/05/10 03:19:24;;;;;;;16.92;6.72;;;13.00;99.90;;;;;;5063895;28;20085;-87
2022/05/10 03:21:52;;;;;;;11.70;7.15;;;13.00;99.90;;;;;;5061031;28;20040;-88
2022/05/10 03:24:17;;;;;;;15.40;6.90;;;12.90;99.90;;;;;;5063374;28;20039;-87
2022/05/10 03:26:52;;;;;;;13.88;7.50;;;12.90;99.90;;;;;;5058534;28;20029;-86
2022/05/10 03:29:19;;;;;;;13.27;7.25;;;12.90;99.90;;;;;;5063068;28;20044;-86
2022/05/10 03:31:45;;;;;;;11.70;7.47;;;12.90;99.90;;;;;;5064438;28;20408;-86
2022/05/10 03:36:58;;;;;;;13.38;7.63;;;12.80;99.90;;;;;;5064054;28;20037;-87
2022/05/10 03:39:24;;;;;;;11.57;7.20;;;12.80;99.90;;;;;;5062946;28;20029;-87
2022/05/10 03:41:50;;;;;;;12.25;7.03;;;12.80;99.90;;;;;;5063085;28;20021;-87
2022/05/10 03:44:16;;;;;;;14.00;7.28;;;12.80;99.90;;;;;;5063203;28;20025;-85
2022/05/10 03:46:44;;;;;;;11.82;6.90;;;12.80;99.90;;;;;;5062892;28;20538;-86
2022/05/10 03:49:10;;;;;;;13.85;7.25;;;12.80;99.90;;;;;;5065221;28;20059;-85
2022/05/10 03:51:36;;;;;;;18.58;7.25;;;12.80;99.90;;;;;;5064781;28;20044;-86
2022/05/10 03:54:02;;;;;;;12.48;5.85;;;12.80;99.90;;;;;;5062823;28;20306;-86
2022/05/10 03:56:28;;;;;;;12.68;6.40;;;12.80;99.90;;;;;;5060671;28;20385;-85
2022/05/10 03:58:57;;;;;;;11.85;5.88;;;12.90;99.90;;;;;;5062366;28;20728;-86
2022/05/10 04:01:23;;;;;;;12.82;5.57;;;12.90;99.90;;;;;;5053898;28;20052;-86
2022/05/10 04:03:49;;;;;;;10.07;5.85;;;12.90;99.90;;;;;;5063369;28;20025;-86
2022/05/10 04:06:16;;;;;;;11.32;6.10;;;12.90;99.90;;;;;;5060684;28;20048;-86
2022/05/10 04:08:42;;;;;;;8.40;5.63;;;12.80;99.90;;;;;;5044540;28;20033;-86
2022/05/10 04:11:10;;;;;;;13.93;5.88;;;12.80;99.90;;;;;;5063274;28;20063;-86
2022/05/10 04:13:38;;;;;;;13.07;6.35;;;12.80;99.90;;;;;;5061436;28;20048;-84
2022/05/10 04:16:04;;;;;;;13.38;6.18;;;12.80;99.90;;;;;;5064955;28;20035;-86
2022/05/10 04:18:29;;;;;;;8.77;5.85;;;12.80;99.90;;;;;;5064263;28;20089;-86
2022/05/10 04:20:55;;;;;;;9.32;5.85;;;12.80;99.90;;;;;;5062255;28;20037;-86
2022/05/10 04:23:21;;;;;;;14.18;5.97;;;12.80;99.90;;;;;;5062048;28;20099;-87
2022/05/10 04:25:47;;;;;;;11.02;6.22;;;12.80;99.90;;;;;;5061562;28;20029;-88
2022/05/10 04:28:14;;;;;;;11.80;6.05;;;12.90;99.90;;;;;;5066560;28;20017;-86
2022/05/10 04:30:39;;;;;;;16.25;6.47;;;12.90;99.90;;;;;;5067251;28;20032;-86
2022/05/10 04:33:05;;;;;;;9.48;5.72;;;12.90;99.90;;;;;;5073424;28;20037;-87
2022/05/10 04:35:32;;;;;;;16.55;6.32;;;12.90;99.90;;;;;;5061932;28;20032;-87
2022/05/10 04:38:03;;;;;;;14.43;5.78;;;13.00;99.90;;;;;;5076089;28;20037;-91
2022/05/10 04:43:15;;;;;;;8.32;5.47;;;13.00;99.90;;;;;;5073366;28;20037;-88
2022/05/10 04:45:44;;;;;;;10.30;6.13;;;13.10;99.90;;;;;;5080227;28;20048;-89
2022/05/10 04:48:10;;;;;;;12.65;6.75;;;13.10;99.90;;;;;;5080105;28;20027;-88
2022/05/10 04:50:36;;;;;;;14.27;6.63;;;13.20;99.90;;;;;;5073489;28;20006;-87
2022/05/10 04:53:02;;;;;;;12.88;6.97;;;13.30;99.90;;;;;;5072802;28;20016;-87
2022/05/10 04:55:27;;;;;;;14.18;7.00;;;13.50;99.90;;;;;;5103642;28;20051;-87
2022/05/10 04:57:53;;;;;;;16.52;6.45;;;13.70;99.90;;;;;;5076754;28;20051;-87
2022/05/10 05:00:20;;;;;;;13.20;7.13;;;13.90;99.90;;;;;;5077193;28;20057;-89
2022/05/10 05:02:46;;;;;;;12.60;7.35;;;14.00;99.90;;;;;;5079212;28;20087;-88
2022/05/10 05:05:13;;;;;;;16.05;7.30;;;14.00;99.90;;;;;;5072001;28;20017;-91
2022/05/10 05:07:39;;;;;;;11.73;6.60;;;14.20;99.90;;;;;;5080318;28;20028;-89
2022/05/10 05:10:06;;;;;;;17.90;7.53;;;14.20;99.90;;;;;;5079965;28;20009;-89
2022/05/10 05:12:33;;;;;;;12.55;7.10;;;14.20;99.90;;;;;;5079737;28;20109;-91
2022/05/10 05:14:59;;;;;;;13.05;7.32;;;14.50;99.90;;;;;;5079795;28;20036;-88
2022/05/10 05:17:28;;;;;;;14.10;6.70;;;14.80;99.90;;;;;;5079988;28;20032;-90
2022/05/10 05:19:53;;;;;;;12.40;6.50;;;15.00;99.90;;;;;;5062322;28;20021;-89
2022/05/10 05:22:19;;;;;;;12.88;7.07;;;15.10;99.90;;;;;;5079465;28;20040;-90
2022/05/10 05:24:45;;;;;;;10.40;6.03;;;15.40;99.90;;;;;;5079442;28;20035;-88
2022/05/10 05:27:11;;;;;;;16.85;7.22;;;15.50;99.90;;;;;;5062536;28;20013;-89
2022/05/10 05:29:40;;;;;;;11.32;6.25;;;15.60;99.90;;;;;;5079838;28;20017;-90
2022/05/10 05:32:10;;;;;;;10.75;6.50;;;15.60;99.90;;;;;;5101740;22;20047;-89
2022/05/10 05:34:36;;;;;;;10.70;6.10;;;15.60;99.90;;;;;;5098653;28;20124;-88
2022/05/10 05:39:47;;;;;;;18.85;5.50;;;15.60;99.90;;;;;;5090344;28;20039;-90
2022/05/10 05:42:13;;;;;;;10.82;5.80;;;15.70;99.90;;;;;;5093305;28;20112;-88
2022/05/10 05:44:39;;;;;;;13.90;6.03;;;15.90;99.90;;;;;;5090745;28;20021;-87
2022/05/10 05:47:05;;;;;;;20.65;6.03;;;16.00;99.90;;;;;;5082261;28;20020;-88
2022/05/10 05:49:31;;;;;;;14.77;7.10;;;16.10;99.90;;;;;;5081891;28;20055;-88
2022/05/10 05:51:58;;;;;;;16.35;6.55;;;16.30;99.90;;;;;;5076491;28;20029;-87
2022/05/10 05:54:24;;;;;;;17.15;8.88;;;16.30;99.90;;;;;;5074055;28;20048;-88
2022/05/10 05:56:51;;;;;;;18.92;6.82;;;16.40;99.90;;;;;;5049982;28;20067;-87
2022/05/10 05:59:17;;;;;;;13.23;5.80;;;16.40;99.90;;;;;;5045189;28;20034;-86
2022/05/10 06:01:43;;;;;;;14.57;6.45;;;16.50;99.90;;;;;;5045611;28;20485;-87
2022/05/10 06:04:09;;;;;;;11.85;5.85;;;16.60;99.90;;;;;;5046587;28;20063;-89
2022/05/10 06:06:34;;;;;;;11.27;6.28;;;16.60;99.90;;;;;;5045858;28;20025;-87
2022/05/10 06:09:00;;;;;;;15.27;6.30;;;16.80;99.90;;;;;;5045427;28;20060;-88
2022/05/10 06:11:26;;;;;;;15.80;6.60;;;16.90;99.90;;;;;;5043794;28;20041;-86
2022/05/10 06:16:27;;;;;;;29.13;6.85;;;17.10;99.90;;;;;;4675157;26;20033;-88
2022/05/10 06:18:53;;;;;;;14.30;6.95;;;17.20;99.90;;;;;;5022266;28;20049;-88
2022/05/10 06:21:19;;;;;;;19.08;7.60;;;17.40;99.90;;;;;;5022275;28;20026;-87
2022/05/10 06:23:45;;;;;;;20.25;8.40;;;17.40;99.90;;;;;;5023591;28;20069;-86
2022/05/10 06:26:10;;;;;;;16.23;7.85;;;17.40;99.90;;;;;;5025203;28;20029;-88
2022/05/10 06:28:37;;;;;;;14.38;7.47;;;17.60;99.90;;;;;;5025483;28;20034;-87
2022/05/10 06:31:07;;;;;;;17.25;7.57;;;17.80;99.90;;;;;;5026488;28;20045;-87
2022/05/10 06:33:33;;;;;;;14.35;6.90;;;17.80;99.90;;;;;;5025609;28;20053;-87
2022/05/10 06:35:59;;;;;;;17.50;7.47;;;18.00;99.90;;;;;;5025599;28;20033;-86
2022/05/10 06:38:27;;;;;;;17.48;6.90;;;18.00;99.90;;;;;;5006853;28;20061;-87
2022/05/10 06:41:00;;;;;;;13.23;6.93;;;17.90;99.90;;;;;;5023893;28;20029;-88
2022/05/10 06:43:26;;;;;;;14.98;6.82;;;18.00;99.90;;;;;;5022374;28;20038;-88
2022/05/10 06:45:53;;;;;;;12.32;6.85;;;18.10;99.90;;;;;;5023698;28;20033;-88
2022/05/10 06:48:19;;;;;;;14.30;6.00;;;18.10;99.90;;;;;;5025390;28;20496;-87
2022/05/10 06:50:45;;;;;;;15.98;6.07;;;18.10;99.90;;;;;;5024323;28;20026;-87
2022/05/10 06:53:12;;;;;;;16.02;5.88;;;18.20;99.90;;;;;;5008097;28;20042;-86
2022/05/10 06:55:38;;;;;;;14.85;7.25;;;18.40;99.90;;;;;;5026139;28;20450;-87
2022/05/10 06:58:05;;;;;;;14.13;6.80;;;18.50;99.90;;;;;;5031437;28;20037;-89
2022/05/10 07:00:36;;;;;;;14.60;5.72;;;18.60;99.90;;;;;;5027496;28;20033;-87
2022/05/10 07:03:10;;;;;;;10.75;6.00;;;18.70;99.90;;;;;;5025805;28;20082;-87
2022/05/10 07:05:36;;;;;;;13.77;6.05;;;18.70;99.90;;;;;;5024031;28;20038;-86
2022/05/10 07:08:02;;;;;;;11.75;5.70;;;18.80;99.90;;;;;;5023820;28;20187;-89
2022/05/10 07:10:31;;;;;;;13.43;5.70;;;18.90;99.90;;;;;;5023167;28;20030;-91
2022/05/10 07:12:58;;;;;;;15.77;6.18;;;19.00;99.90;;;;;;4999198;28;20042;-86
2022/05/10 07:15:24;;;;;;;15.10;5.95;;;19.10;99.90;;;;;;5000021;28;20045;-87
2022/05/10 07:17:54;;;;;;;14.18;5.30;;;19.10;99.90;;;;;;5005514;28;20022;-86
2022/05/10 07:20:20;;;;;;;13.20;5.75;;;19.10;99.90;;;;;;5023838;28;20033;-89
2022/05/10 07:22:48;;;;;;;14.60;6.25;;;19.20;99.90;;;;;;5033029;28;20181;-89
2022/05/10 07:25:18;;;;;;;12.40;5.88;;;19.20;99.90;;;;;;5028434;28;20262;-89
2022/05/10 07:27:44;;;;;;;14.18;5.75;;;19.10;99.90;;;;;;5022611;28;20026;-88
2022/05/10 07:30:11;;;;;;;15.13;5.55;;;19.10;99.90;;;;;;5018499;28;20018;-87
2022/05/10 07:32:37;;;;;;;9.43;5.35;;;19.20;99.90;;;;;;5013690;28;20018;-88
2022/05/10 07:35:04;;;;;;;10.75;5.32;;;19.20;99.90;;;;;;5014609;28;20049;-87
2022/05/10 07:37:30;;;;;;;20.35;6.03;;;19.20;99.90;;;;;;5017765;28;20018;-89
2022/05/10 07:39:56;;;;;;;12.73;5.32;;;19.30;99.90;;;;;;5023564;28;20049;-87
2022/05/10 07:42:22;;;;;;;17.05;5.95;;;19.40;99.90;;;;;;5011253;28;20026;-86
2022/05/10 07:44:51;;;;;;;13.27;5.90;;;19.50;99.90;;;;;;5015050;28;20125;-86
2022/05/10 07:47:17;;;;;;;13.20;5.63;;;19.60;99.90;;;;;;5014083;28;20394;-87
2022/05/10 07:49:43;;;;;;;13.73;5.80;;;19.80;99.60;;;;;;5014701;28;20026;-84
2022/05/10 07:52:09;;;;;;;10.40;5.68;;;19.80;99.60;;;;;;5025099;28;20490;-86
2022/05/10 07:54:36;;;;;;;14.55;6.15;;;19.90;99.30;;;;;;5027629;28;20110;-83
2022/05/10 07:57:03;;;;;;;14.48;5.28;;;20.00;99.40;;;;;;5022786;28;20077;-85
2022/05/10 07:59:31;;;;;;;14.57;6.72;;;20.00;99.70;;;;;;5022532;28;20030;-85
2022/05/10 08:01:58;;;;;;;15.20;6.22;;;20.10;99.70;;;;;;5025139;28;20053;-87
2022/05/10 08:04:24;;;;;;;12.85;5.82;;;20.10;99.40;;;;;;5029842;28;20030;-86
2022/05/10 08:06:52;;;;;;;13.88;5.60;;;20.20;98.90;;;;;;5030507;28;20036;-86
2022/05/10 08:09:19;;;;;;;15.20;5.78;;;20.20;99.10;;;;;;5030575;28;20095;-86
2022/05/10 08:11:46;;;;;;;9.85;5.38;;;20.20;99.00;;;;;;5030690;28;20071;-86
2022/05/10 08:14:13;;;;;;;10.15;5.65;;;20.20;98.90;;;;;;5030252;28;20034;-87
2022/05/10 08:16:39;;;;;;;13.60;5.78;;;20.30;98.70;;;;;;5024194;28;20025;-86
2022/05/10 08:19:05;;;;;;;12.77;5.82;;;20.20;99.20;;;;;;5038335;28;20038;-85
2022/05/10 08:21:32;;;;;;;13.07;5.68;;;20.30;98.80;;;;;;5038661;28;20025;-84
2022/05/10 08:23:58;;;;;;;12.88;5.68;;;20.40;98.90;;;;;;5035679;28;20026;-86
2022/05/10 08:26:24;;;;;;;17.83;6.05;;;20.50;98.80;;;;;;5035553;28;20044;-88
2022/05/10 08:28:51;;;;;;;10.25;5.40;;;20.70;98.60;;;;;;5034889;28;20030;-86
2022/05/10 08:31:20;;;;;;;10.57;5.55;;;20.80;98.20;;;;;;5031524;28;20073;-86
2022/05/10 08:33:47;;;;;;;10.27;5.35;;;20.70;98.10;;;;;;5023748;28;20061;-85
2022/05/10 08:36:13;;;;;;;17.40;5.60;;;20.60;98.30;;;;;;5024090;28;20031;-84
2022/05/10 08:38:39;;;;;;;10.18;5.68;;;20.90;98.20;;;;;;5019894;28;20034;-84
2022/05/10 08:41:10;;;;;;;9.80;5.45;;;21.00;98.00;;;;;;5016568;28;20034;-84
2022/05/10 08:44:01;;;;;;;12.18;5.15;;;21.20;97.80;;;;;;5014845;28;20057;-85
2022/05/10 08:46:37;;;;;;;14.55;4.85;;;21.50;97.50;;;;;;5009117;28;20040;-85
2022/05/10 08:49:10;;;;;;;16.63;5.97;;;21.70;97.20;;;;;;5017802;28;20023;-85
2022/05/10 08:51:36;;;;;;;10.82;5.43;;;21.70;97.20;;;;;;5027799;28;20055;-86
2022/05/10 08:54:02;;;;;;;13.90;5.35;;;21.80;96.70;;;;;;5031040;28;20030;-76
2022/05/10 08:56:32;;;;;;;14.40;5.60;;;21.90;98.40;;;;;;5054514;23;20044;-90
2022/05/10 08:59:17;;;;;;;10.48;3.80;;;22.10;98.60;;;;;;5023354;28;20069;-88
2022/05/10 09:02:03;;;;;;;9.02;4.07;;;22.20;99.90;;;;;;5061493;28;20014;-88
2022/05/10 09:04:54;;;;;;;10.45;3.75;;;22.30;99.90;;;;;;5023246;28;20030;-90
2022/05/10 09:07:59;;;;;;;12.25;4.93;;;22.50;99.60;;;;;;5004454;28;20035;-90
2022/05/10 09:10:33;;;;;;;9.30;4.65;;;22.60;99.50;;;;;;4981899;28;20049;-89
2022/05/10 09:13:10;;;;;;;9.57;5.38;;;22.60;97.40;;;;;;5026448;28;20078;-88
2022/05/10 09:15:40;;;;;;;9.10;4.88;;;22.50;97.40;;;;;;5024250;28;20034;-89
2022/05/10 09:18:19;;;;;;;10.80;5.15;;;22.50;98.70;;;;;;5020875;28;20030;-88
2022/05/10 09:21:11;;;;;;;11.50;5.40;;;22.30;97.10;;;;;;5018470;28;20242;-90
2022/05/10 09:24:08;;;;;;;10.88;4.68;;;22.20;97.50;;;;;;5026271;28;20121;-91
2022/05/10 09:26:42;;;;;;;8.15;5.38;;;22.20;99.80;;;;;;5021142;28;20034;-89
2022/05/10 09:29:36;;;;;;;10.57;5.10;;;22.50;97.50;;;;;;5033947;28;20049;-89
2022/05/10 09:35:19;;;;;;;10.50;4.90;;;23.40;96.90;;;;;;4997341;28;20046;-90
2022/05/10 09:37:58;;;;;;;8.68;4.90;;;23.80;96.30;;;;;;5014523;28;20029;-90
2022/05/10 09:40:32;;;;;;;14.13;4.88;;;24.50;94.30;;;;;;5021928;28;20563;-89
2022/05/10 09:43:27;;;;;;;9.43;4.70;;;25.60;92.70;;;;;;5025620;28;20034;-90
2022/05/10 09:46:25;;;;;;;14.02;4.35;;;27.40;92.50;;;;;;5026321;28;20064;-88
2022/05/10 09:48:51;;;;;;;6.40;3.92;;;28.40;86.90;;;;;;5029945;28;20050;-90
2022/05/10 09:51:27;;;;;;;13.13;4.28;;;28.60;84.50;;;;;;5011003;28;20082;-91
2022/05/10 09:53:55;;;;;;;8.52;3.90;;;27.90;90.10;;;;;;5018767;28;20126;-90
2022/05/10 09:56:24;;;;;;;12.57;3.95;;;28.20;88.60;;;;;;5016534;28;20030;-89
2022/05/10 09:58:56;;;;;;;10.23;4.07;;;28.40;83.60;;;;;;5015778;28;20033;-92
2022/05/10 10:01:37;;;;;;;9.60;3.90;;;28.60;81.20;;;;;;5011675;28;20498;-90
2022/05/10 10:04:20;;;;;;;9.25;3.97;;;29.10;83.00;;;;;;5013367;28;20030;-89
2022/05/10 10:07:16;;;;;;;8.63;4.18;;;28.80;80.60;;;;;;4995136;28;20382;-89
2022/05/10 10:09:47;;;;;;;11.70;4.30;;;28.60;81.60;;;;;;5010342;28;20041;-89
2022/05/10 10:12:26;;;;;;;9.70;4.00;;;30.20;75.10;;;;;;4995371;28;20034;-90
2022/05/10 10:14:52;;;;;;;6.35;3.35;;;32.00;66.40;;;;;;5017766;28;20030;-90
2022/05/10 10:17:30;;;;;;;5.63;3.00;;;32.40;68.40;;;;;;5006700;28;20015;-89
2022/05/10 10:20:12;;;;;;;4.80;3.28;;;32.70;64.30;;;;;;5027074;28;20034;-90
2022/05/10 10:22:52;;;;;;;9.57;3.75;;;33.90;64.60;;;;;;4979925;28;20219;-90
2022/05/10 10:25:58;;;;;;;8.32;3.83;;;35.10;63.00;;;;;;5009425;28;20034;-91
2022/05/10 10:28:31;;;;;;;7.70;3.30;;;35.40;58.70;;;;;;4928433;29;20044;-90
2022/05/10 10:30:59;;;;;;;5.97;3.30;;;36.10;57.80;;;;;;4994944;28;20038;-92
2022/05/10 10:33:44;;;;;;;4.28;3.58;;;37.00;53.90;;;;;;4996770;28;20099;-90
2022/05/10 10:36:16;;;;;;;7.78;3.50;;;36.90;52.90;;;;;;5009727;28;20049;-89
2022/05/10 10:38:56;;;;;;;5.43;2.80;;;36.90;54.70;;;;;;4999881;28;20052;-88
2022/05/10 10:41:48;;;;;;;6.80;3.35;;;36.50;55.10;;;;;;5010479;28;20041;-92
2022/05/10 10:44:29;;;;;;;8.02;3.33;;;35.90;53.70;;;;;;5010029;28;20026;-91
2022/05/10 10:47:04;;;;;;;5.53;3.13;;;35.00;56.00;;;;;;5006578;28;20037;-88
2022/05/10 10:49:44;;;;;;;8.90;3.95;;;34.80;55.20;;;;;;5022003;28;20022;-90
2022/05/10 10:52:12;;;;;;;11.45;3.58;;;36.20;52.70;;;;;;5005773;28;20039;-89
2022/05/10 10:54:38;;;;;;;5.40;3.33;;;37.50;52.50;;;;;;5025350;28;20064;-89
2022/05/10 10:57:13;;;;;;;6.45;2.95;;;38.10;51.70;;;;;;5009225;28;20038;-91
2022/05/10 11:00:07;;;;;;;6.10;3.15;;;37.90;53.40;;;;;;5015252;28;20038;-89
2022/05/10 11:02:58;;;;;;;6.00;2.72;;;37.80;50.70;;;;;;4996889;28;20035;-90
2022/05/10 11:05:34;;;;;;;4.75;2.90;;;39.10;49.90;;;;;;5011688;28;20040;-90
2022/05/10 11:08:24;;;;;;;6.60;3.17;;;39.40;49.50;;;;;;5007289;28;20034;-91
2022/05/10 11:10:59;;;;;;;6.43;3.47;;;40.00;50.30;;;;;;5000038;28;20034;-89
2022/05/10 11:13:34;;;;;;;12.23;3.72;;;40.30;47.50;;;;;;4999887;28;20031;-91
2022/05/10 11:16:03;;;;;;;5.70;3.25;;;39.80;48.30;;;;;;5010733;28;20057;-90
2022/05/10 11:18:42;;;;;;;4.15;2.60;;;39.30;46.70;;;;;;4996382;28;20023;-90
2022/05/10 11:21:39;;;;;;;7.15;3.33;;;38.90;48.90;;;;;;5012695;28;20030;-90
2022/05/10 11:24:20;;;;;;;7.07;3.38;;;38.70;48.60;;;;;;5013113;28;20037;-88
2022/05/10 11:27:11;;;;;;;8.55;3.17;;;37.60;50.30;;;;;;5014751;28;20148;-89
2022/05/10 11:29:52;;;;;;;7.68;3.55;;;35.30;52.20;;;;;;5016380;28;20061;-91
2022/05/10 11:32:56;;;;;;;9.23;3.00;;;34.20;52.40;;;;;;4998137;28;20042;-88
2022/05/10 11:35:42;;;;;;;7.85;3.38;;;34.10;52.70;;;;;;5017162;28;20022;-88
2022/05/10 11:38:49;;;;;;;5.30;2.50;;;34.20;51.70;;;;;;4994335;28;20038;-90
2022/05/10 11:41:35;;;;;;;5.90;2.78;;;35.50;49.00;;;;;;5006036;28;20051;-90
2022/05/10 11:44:39;;;;;;;6.93;2.75;;;35.20;49.30;;;;;;4992612;28;20030;-89
2022/05/10 11:47:27;;;;;;;6.88;3.05;;;35.60;50.90;;;;;;5011991;28;20030;-89
2022/05/10 11:50:18;;;;;;;14.32;4.15;;;36.00;48.20;;;;;;5012273;28;20045;-89
2022/05/10 11:52:56;;;;;;;5.65;2.75;;;36.10;50.60;;;;;;5013770;28;20038;-90
2022/05/10 11:55:50;;;;;;;6.63;2.97;;;37.40;48.20;;;;;;5024429;28;20046;-88
2022/05/10 11:58:16;;;;;;;8.25;2.78;;;37.80;46.50;;;;;;5041752;28;20034;-90
2022/05/10 12:01:00;;;;;;;7.10;2.83;;;37.90;46.20;;;;;;5001536;28;20034;-89
2022/05/10 12:03:43;;;;;;;4.57;2.67;;;38.20;46.00;;;;;;5014798;28;20030;-90
2022/05/10 12:06:24;;;;;;;7.43;2.90;;;38.80;46.00;;;;;;5032071;28;20022;-91
2022/05/10 12:09:01;;;;;;;15.85;3.90;;;38.70;45.80;;;;;;5016593;28;20109;-90
2022/05/10 12:11:38;;;;;;;7.03;2.90;;;39.40;46.10;;;;;;5035039;28;20120;-89
2022/05/10 12:22:53;;;;;;;7.35;3.05;;;38.90;45.80;;;;;;5036956;28;20033;-89
2022/05/10 12:25:59;;;;;;;4.35;2.40;;;37.90;46.50;;;;;;5036379;28;20048;-88
2022/05/10 12:28:45;;;;;;;5.57;3.00;;;37.80;47.40;;;;;;5019070;28;20049;-88
2022/05/10 12:31:30;;;;;;;2.90;2.30;;;36.80;48.10;;;;;;5036662;28;20022;-89
2022/05/10 12:34:02;;;;;;;7.47;2.90;;;34.70;48.20;;;;;;5036418;28;20014;-90
2022/05/10 12:36:41;;;;;;;4.50;2.42;;;34.00;48.90;;;;;;5052168;28;20041;-89
2022/05/10 12:39:29;;;;;;;5.10;2.88;;;34.80;47.70;;;;;;5020016;28;20046;-88
2022/05/10 12:42:14;;;;;;;5.50;2.45;;;36.60;47.00;;;;;;5052794;28;20034;-88
2022/05/10 12:44:50;;;;;;;7.07;3.30;;;37.20;47.80;;;;;;5035904;28;20033;-88
2022/05/10 12:47:31;;;;;;;5.35;2.83;;;35.70;48.40;;;;;;5052190;28;20019;-88
2022/05/10 12:50:14;;;;;;;9.65;2.88;;;35.50;46.60;;;;;;5037005;28;20132;-88
2022/05/10 12:52:47;;;;;;;7.10;2.80;;;34.10;47.50;;;;;;5039880;28;20088;-88
2022/05/10 12:55:42;;;;;;;6.18;2.90;;;33.60;49.70;;;;;;5022130;28;20034;-89
2022/05/10 12:58:20;;;;;;;7.68;2.17;;;34.90;48.40;;;;;;5038187;28;20103;-89
2022/05/10 13:00:54;;;;;;;5.00;2.42;;;37.00;46.30;;;;;;5040353;28;20022;-89
2022/05/10 13:03:28;;;;;;;6.80;2.42;;;36.20;45.90;;;;;;5040150;28;20109;-89
2022/05/10 13:06:12;;;;;;;4.93;2.17;;;35.40;47.10;;;;;;5039998;28;20175;-88
2022/05/10 13:08:47;;;;;;;4.85;2.53;;;33.90;49.10;;;;;;5039281;28;20088;-87
2022/05/10 13:11:13;;;;;;;3.20;2.10;;;33.30;48.70;;;;;;5040189;28;20197;-89
2022/05/10 13:13:40;;;;;;;3.13;2.10;;;34.50;47.30;;;;;;5017263;28;20018;-91
2022/05/10 13:16:14;;;;;;;4.82;2.53;;;36.00;46.60;;;;;;5027826;28;20019;-90
2022/05/10 13:18:42;;;;;;;8.60;2.35;;;36.80;48.30;;;;;;5020036;28;20026;-90
2022/05/10 13:21:08;;;;;;;5.90;2.13;;;37.10;48.40;;;;;;5003229;28;20049;-91
2022/05/10 13:23:34;;;;;;;5.20;2.28;;;37.30;47.70;;;;;;5002023;28;20046;-89
2022/05/10 13:26:09;;;;;;;2.58;2.10;;;37.60;46.20;;;;;;5019144;28;20114;-87
2022/05/10 13:29:09;;;;;;;3.13;2.30;;;37.40;46.30;;;;;;5000183;28;20090;-90
2022/05/10 13:31:37;;;;;;;2.47;1.90;;;37.40;47.00;;;;;;4999923;28;20038;-88
2022/05/10 13:34:16;;;;;;;6.70;2.53;;;37.50;44.90;;;;;;5018722;28;20003;-89
2022/05/10 13:36:52;;;;;;;4.47;2.00;;;37.90;46.40;;;;;;5018991;28;20027;-87
2022/05/10 13:39:27;;;;;;;5.80;2.60;;;38.10;45.50;;;;;;5019054;28;20018;-88